sensor_id;sensor_type;location;lat;lon;timestamp;P1;durP1;ratioP1;P2;durP2;ratioP2
50363;SDS011;36272;59.400;17.982;2023-01-08T00:01:50;235.55;;;57.55;;
50363;SDS011;36272;59.400;17.982;2023-01-08T00:45:49;227.60;;;55.78;;
50363;SDS011;36272;59.400;17.982;2023-01-08T01:37:42;92.00;;;29.15;;
50363;SDS011;36272;59.400;17.982;2023-01-08T01:42:44;76.22;;;28.10;;
50363;SDS011;36272;59.400;17.982;2023-01-08T01:47:46;75.82;;;27.98;;
50363;SDS011;36272;59.400;17.982;2023-01-08T01:53:04;67.57;;;25.48;;
50363;SDS011;36272;59.400;17.982;2023-01-08T01:58:36;67.85;;;27.58;;
50363;SDS011;36272;59.400;17.982;2023-01-08T04:11:56;24.38;;;11.85;;
50363;SDS011;36272;59.400;17.982;2023-01-08T04:17:03;21.67;;;11.00;;
50363;SDS011;36272;59.400;17.982;2023-01-08T04:22:05;24.17;;;11.35;;
50363;SDS011;36272;59.400;17.982;2023-01-08T04:32:45;20.58;;;10.82;;
50363;SDS011;36272;59.400;17.982;2023-01-08T04:37:47;23.98;;;10.25;;
50363;SDS011;36272;59.400;17.982;2023-01-08T04:42:54;21.27;;;10.50;;
50363;SDS011;36272;59.400;17.982;2023-01-08T04:47:56;19.08;;;9.85;;
50363;SDS011;36272;59.400;17.982;2023-01-08T04:52:59;21.92;;;10.30;;
50363;SDS011;36272;59.400;17.982;2023-01-08T04:58:03;17.02;;;9.85;;
50363;SDS011;36272;59.400;17.982;2023-01-08T05:03:05;17.70;;;8.98;;
50363;SDS011;36272;59.400;17.982;2023-01-08T05:08:07;17.83;;;8.70;;
50363;SDS011;36272;59.400;17.982;2023-01-08T05:13:09;20.17;;;8.70;;
50363;SDS011;36272;59.400;17.982;2023-01-08T05:18:10;17.42;;;8.85;;
50363;SDS011;36272;59.400;17.982;2023-01-08T05:23:12;17.80;;;8.77;;
50363;SDS011;36272;59.400;17.982;2023-01-08T05:28:17;17.38;;;8.23;;
50363;SDS011;36272;59.400;17.982;2023-01-08T05:33:18;17.27;;;8.45;;
50363;SDS011;36272;59.400;17.982;2023-01-08T05:38:22;15.98;;;8.57;;
50363;SDS011;36272;59.400;17.982;2023-01-08T05:43:26;17.30;;;8.52;;
50363;SDS011;36272;59.400;17.982;2023-01-08T05:48:28;19.92;;;9.35;;
50363;SDS011;36272;59.400;17.982;2023-01-08T05:53:32;20.80;;;10.27;;
50363;SDS011;36272;59.400;17.982;2023-01-08T05:58:34;21.15;;;9.88;;
50363;SDS011;36272;59.400;17.982;2023-01-08T06:03:36;24.48;;;9.93;;
50363;SDS011;36272;59.400;17.982;2023-01-08T06:08:38;18.70;;;9.38;;
50363;SDS011;36272;59.400;17.982;2023-01-08T06:13:41;22.00;;;10.65;;
50363;SDS011;36272;59.400;17.982;2023-01-08T06:18:44;19.10;;;9.77;;
50363;SDS011;36272;59.400;17.982;2023-01-08T06:23:45;21.50;;;10.45;;
50363;SDS011;36272;59.400;17.982;2023-01-08T06:28:47;19.52;;;10.32;;
50363;SDS011;36272;59.400;17.982;2023-01-08T06:33:49;19.00;;;10.27;;
50363;SDS011;36272;59.400;17.982;2023-01-08T06:38:50;20.25;;;11.18;;
50363;SDS011;36272;59.400;17.982;2023-01-08T06:43:52;25.73;;;12.60;;
50363;SDS011;36272;59.400;17.982;2023-01-08T06:48:54;27.15;;;13.93;;
50363;SDS011;36272;59.400;17.982;2023-01-08T06:53:56;26.20;;;13.50;;
50363;SDS011;36272;59.400;17.982;2023-01-08T06:58:57;24.65;;;13.02;;
50363;SDS011;36272;59.400;17.982;2023-01-08T07:03:59;23.95;;;13.32;;
50363;SDS011;36272;59.400;17.982;2023-01-08T07:09:10;26.73;;;13.02;;
50363;SDS011;36272;59.400;17.982;2023-01-08T07:14:13;25.15;;;13.40;;
50363;SDS011;36272;59.400;17.982;2023-01-08T07:19:15;30.80;;;15.10;;
50363;SDS011;36272;59.400;17.982;2023-01-08T07:24:16;33.05;;;15.05;;
50363;SDS011;36272;59.400;17.982;2023-01-08T07:29:18;33.35;;;15.00;;
50363;SDS011;36272;59.400;17.982;2023-01-08T07:34:20;32.88;;;16.38;;
50363;SDS011;36272;59.400;17.982;2023-01-08T07:39:21;34.42;;;16.80;;
50363;SDS011;36272;59.400;17.982;2023-01-08T07:44:23;42.70;;;18.02;;
50363;SDS011;36272;59.400;17.982;2023-01-08T07:49:25;38.15;;;18.80;;
50363;SDS011;36272;59.400;17.982;2023-01-08T07:54:26;37.33;;;18.10;;
50363;SDS011;36272;59.400;17.982;2023-01-08T07:59:28;41.15;;;19.17;;
50363;SDS011;36272;59.400;17.982;2023-01-08T08:04:30;56.35;;;21.55;;
50363;SDS011;36272;59.400;17.982;2023-01-08T08:09:31;58.80;;;23.00;;
50363;SDS011;36272;59.400;17.982;2023-01-08T08:14:33;53.80;;;22.58;;
50363;SDS011;36272;59.400;17.982;2023-01-08T08:19:35;58.85;;;24.13;;
50363;SDS011;36272;59.400;17.982;2023-01-08T08:24:37;61.00;;;23.23;;
50363;SDS011;36272;59.400;17.982;2023-01-08T08:29:41;52.40;;;22.33;;
50363;SDS011;36272;59.400;17.982;2023-01-08T08:34:43;64.28;;;23.48;;
50363;SDS011;36272;59.400;17.982;2023-01-08T08:39:47;60.40;;;22.20;;
50363;SDS011;36272;59.400;17.982;2023-01-08T08:44:54;51.38;;;20.90;;
50363;SDS011;36272;59.400;17.982;2023-01-08T08:55:37;58.13;;;21.50;;
50363;SDS011;36272;59.400;17.982;2023-01-08T09:00:39;46.05;;;19.13;;
50363;SDS011;36272;59.400;17.982;2023-01-08T09:05:42;43.72;;;18.27;;
50363;SDS011;36272;59.400;17.982;2023-01-08T09:10:44;45.60;;;18.13;;
50363;SDS011;36272;59.400;17.982;2023-01-08T09:15:45;38.92;;;17.33;;
50363;SDS011;36272;59.400;17.982;2023-01-08T09:20:47;55.65;;;20.92;;
50363;SDS011;36272;59.400;17.982;2023-01-08T09:25:49;60.25;;;20.58;;
50363;SDS011;36272;59.400;17.982;2023-01-08T09:30:50;101.22;;;28.20;;
50363;SDS011;36272;59.400;17.982;2023-01-08T09:35:52;150.52;;;34.28;;
50363;SDS011;36272;59.400;17.982;2023-01-08T09:40:55;232.20;;;38.45;;
50363;SDS011;36272;59.400;17.982;2023-01-08T09:46:03;207.38;;;38.35;;
50363;SDS011;36272;59.400;17.982;2023-01-08T09:51:16;225.43;;;42.40;;
50363;SDS011;36272;59.400;17.982;2023-01-08T09:56:19;334.35;;;49.92;;
50363;SDS011;36272;59.400;17.982;2023-01-08T10:01:25;333.75;;;52.03;;
50363;SDS011;36272;59.400;17.982;2023-01-08T10:06:32;367.88;;;54.42;;
50363;SDS011;36272;59.400;17.982;2023-01-08T10:11:41;398.25;;;58.22;;
50363;SDS011;36272;59.400;17.982;2023-01-08T10:16:45;397.10;;;58.22;;
50363;SDS011;36272;59.400;17.982;2023-01-08T10:21:48;407.75;;;56.38;;
50363;SDS011;36272;59.400;17.982;2023-01-08T10:26:51;366.23;;;59.85;;
50363;SDS011;36272;59.400;17.982;2023-01-08T10:31:53;398.30;;;58.47;;
50363;SDS011;36272;59.400;17.982;2023-01-08T10:36:57;421.02;;;63.00;;
50363;SDS011;36272;59.400;17.982;2023-01-08T10:42:02;381.27;;;62.88;;
50363;SDS011;36272;59.400;17.982;2023-01-08T10:47:06;441.85;;;65.88;;
50363;SDS011;36272;59.400;17.982;2023-01-08T10:57:35;371.17;;;62.35;;
50363;SDS011;36272;59.400;17.982;2023-01-08T11:07:41;329.90;;;62.72;;
50363;SDS011;36272;59.400;17.982;2023-01-08T11:12:43;349.63;;;65.97;;
50363;SDS011;36272;59.400;17.982;2023-01-08T11:17:45;354.50;;;67.07;;
50363;SDS011;36272;59.400;17.982;2023-01-08T11:22:47;359.70;;;67.97;;
50363;SDS011;36272;59.400;17.982;2023-01-08T11:27:49;379.33;;;70.28;;
50363;SDS011;36272;59.400;17.982;2023-01-08T11:38:10;374.40;;;71.93;;
50363;SDS011;36272;59.400;17.982;2023-01-08T12:05:23;388.42;;;76.60;;
50363;SDS011;36272;59.400;17.982;2023-01-08T12:10:47;370.83;;;78.00;;
50363;SDS011;36272;59.400;17.982;2023-01-08T12:21:33;337.17;;;72.53;;
50363;SDS011;36272;59.400;17.982;2023-01-08T12:32:27;373.80;;;74.63;;
50363;SDS011;36272;59.400;17.982;2023-01-08T12:43:20;355.02;;;71.03;;
50363;SDS011;36272;59.400;17.982;2023-01-08T12:48:32;353.75;;;74.38;;
50363;SDS011;36272;59.400;17.982;2023-01-08T13:04:13;356.13;;;72.65;;
50363;SDS011;36272;59.400;17.982;2023-01-08T13:09:21;358.33;;;75.03;;
50363;SDS011;36272;59.400;17.982;2023-01-08T13:14:26;347.40;;;71.20;;
50363;SDS011;36272;59.400;17.982;2023-01-08T13:19:30;305.77;;;69.65;;
50363;SDS011;36272;59.400;17.982;2023-01-08T13:24:36;308.88;;;67.95;;
50363;SDS011;36272;59.400;17.982;2023-01-08T13:29:45;321.38;;;69.47;;
50363;SDS011;36272;59.400;17.982;2023-01-08T13:35:00;304.90;;;67.68;;
50363;SDS011;36272;59.400;17.982;2023-01-08T13:45:44;355.00;;;74.30;;
50363;SDS011;36272;59.400;17.982;2023-01-08T13:50:52;364.20;;;72.53;;
50363;SDS011;36272;59.400;17.982;2023-01-08T13:55:55;330.98;;;70.95;;
50363;SDS011;36272;59.400;17.982;2023-01-08T14:06:18;342.52;;;73.18;;
50363;SDS011;36272;59.400;17.982;2023-01-08T14:11:24;355.88;;;72.60;;
50363;SDS011;36272;59.400;17.982;2023-01-08T14:16:47;344.67;;;70.28;;
50363;SDS011;36272;59.400;17.982;2023-01-08T14:21:53;344.85;;;72.20;;
50363;SDS011;36272;59.400;17.982;2023-01-08T14:26:58;366.45;;;74.75;;
50363;SDS011;36272;59.400;17.982;2023-01-08T14:32:00;320.52;;;73.00;;
50363;SDS011;36272;59.400;17.982;2023-01-08T14:37:02;335.00;;;70.35;;
50363;SDS011;36272;59.400;17.982;2023-01-08T14:42:06;305.42;;;68.78;;
50363;SDS011;36272;59.400;17.982;2023-01-08T14:47:53;286.55;;;66.63;;
50363;SDS011;36272;59.400;17.982;2023-01-08T14:53:24;301.70;;;70.03;;
50363;SDS011;36272;59.400;17.982;2023-01-08T14:58:34;292.20;;;66.75;;
50363;SDS011;36272;59.400;17.982;2023-01-08T15:03:48;268.60;;;64.07;;
50363;SDS011;36272;59.400;17.982;2023-01-08T15:08:51;301.63;;;68.03;;
50363;SDS011;36272;59.400;17.982;2023-01-08T15:13:53;258.27;;;66.45;;
50363;SDS011;36272;59.400;17.982;2023-01-08T15:19:03;286.10;;;65.50;;
50363;SDS011;36272;59.400;17.982;2023-01-08T15:24:14;238.68;;;61.67;;
50363;SDS011;36272;59.400;17.982;2023-01-08T15:34:34;232.18;;;58.28;;
50363;SDS011;36272;59.400;17.982;2023-01-08T15:39:36;259.08;;;60.80;;
50363;SDS011;36272;59.400;17.982;2023-01-08T15:44:37;246.98;;;57.63;;
50363;SDS011;36272;59.400;17.982;2023-01-08T15:49:39;205.77;;;52.22;;
50363;SDS011;36272;59.400;17.982;2023-01-08T15:54:41;184.40;;;50.22;;
50363;SDS011;36272;59.400;17.982;2023-01-08T15:59:45;201.47;;;52.40;;
50363;SDS011;36272;59.400;17.982;2023-01-08T16:04:54;185.02;;;52.55;;
50363;SDS011;36272;59.400;17.982;2023-01-08T16:09:57;187.13;;;50.25;;
50363;SDS011;36272;59.400;17.982;2023-01-08T16:14:59;168.25;;;46.97;;
50363;SDS011;36272;59.400;17.982;2023-01-08T16:20:01;149.32;;;43.65;;
50363;SDS011;36272;59.400;17.982;2023-01-08T16:25:32;116.15;;;39.08;;
50363;SDS011;36272;59.400;17.982;2023-01-08T16:30:37;116.60;;;39.97;;
50363;SDS011;36272;59.400;17.982;2023-01-08T16:35:42;117.55;;;38.03;;
50363;SDS011;36272;59.400;17.982;2023-01-08T16:40:44;86.70;;;32.42;;
50363;SDS011;36272;59.400;17.982;2023-01-08T16:45:46;104.32;;;36.13;;
50363;SDS011;36272;59.400;17.982;2023-01-08T16:50:48;94.57;;;34.65;;
50363;SDS011;36272;59.400;17.982;2023-01-08T16:55:51;106.75;;;36.30;;
50363;SDS011;36272;59.400;17.982;2023-01-08T17:00:53;106.63;;;38.63;;
50363;SDS011;36272;59.400;17.982;2023-01-08T17:06:10;124.82;;;38.05;;
50363;SDS011;36272;59.400;17.982;2023-01-08T17:11:17;142.45;;;41.75;;
50363;SDS011;36272;59.400;17.982;2023-01-08T17:16:31;145.52;;;42.17;;
50363;SDS011;36272;59.400;17.982;2023-01-08T17:21:43;174.77;;;47.38;;
50363;SDS011;36272;59.400;17.982;2023-01-08T17:26:51;185.57;;;48.50;;
50363;SDS011;36272;59.400;17.982;2023-01-08T17:32:07;170.25;;;46.72;;
50363;SDS011;36272;59.400;17.982;2023-01-08T17:37:20;146.25;;;42.80;;
50363;SDS011;36272;59.400;17.982;2023-01-08T17:42:27;123.82;;;38.75;;
50363;SDS011;36272;59.400;17.982;2023-01-08T17:47:30;128.60;;;37.42;;
50363;SDS011;36272;59.400;17.982;2023-01-08T17:52:32;107.97;;;31.75;;
50363;SDS011;36272;59.400;17.982;2023-01-08T17:57:42;122.28;;;35.10;;
50363;SDS011;36272;59.400;17.982;2023-01-08T18:02:44;103.50;;;34.28;;
50363;SDS011;36272;59.400;17.982;2023-01-08T18:07:46;99.50;;;31.80;;
50363;SDS011;36272;59.400;17.982;2023-01-08T18:12:47;78.28;;;29.30;;
50363;SDS011;36272;59.400;17.982;2023-01-08T18:17:49;70.65;;;27.15;;
50363;SDS011;36272;59.400;17.982;2023-01-08T18:22:52;68.93;;;26.30;;
50363;SDS011;36272;59.400;17.982;2023-01-08T18:27:55;70.53;;;25.73;;
50363;SDS011;36272;59.400;17.982;2023-01-08T18:32:56;60.55;;;23.70;;
50363;SDS011;36272;59.400;17.982;2023-01-08T18:37:58;60.17;;;24.98;;
50363;SDS011;36272;59.400;17.982;2023-01-08T18:43:00;57.30;;;23.90;;
50363;SDS011;36272;59.400;17.982;2023-01-08T18:48:02;56.90;;;22.33;;
50363;SDS011;36272;59.400;17.982;2023-01-08T18:53:05;57.42;;;22.35;;
50363;SDS011;36272;59.400;17.982;2023-01-08T18:58:07;44.40;;;20.42;;
50363;SDS011;36272;59.400;17.982;2023-01-08T19:03:09;45.75;;;19.75;;
50363;SDS011;36272;59.400;17.982;2023-01-08T19:08:12;58.47;;;22.48;;
50363;SDS011;36272;59.400;17.982;2023-01-08T19:13:14;45.75;;;20.35;;
50363;SDS011;36272;59.400;17.982;2023-01-08T19:18:16;57.70;;;21.50;;
50363;SDS011;36272;59.400;17.982;2023-01-08T19:23:18;54.28;;;21.75;;
50363;SDS011;36272;59.400;17.982;2023-01-08T19:28:20;49.40;;;20.05;;
50363;SDS011;36272;59.400;17.982;2023-01-08T19:33:21;48.75;;;21.20;;
50363;SDS011;36272;59.400;17.982;2023-01-08T19:38:23;47.08;;;20.25;;
50363;SDS011;36272;59.400;17.982;2023-01-08T19:43:25;44.90;;;20.20;;
50363;SDS011;36272;59.400;17.982;2023-01-08T19:48:42;46.38;;;18.52;;
50363;SDS011;36272;59.400;17.982;2023-01-08T19:53:44;44.75;;;19.75;;
50363;SDS011;36272;59.400;17.982;2023-01-08T19:58:45;40.45;;;17.85;;
50363;SDS011;36272;59.400;17.982;2023-01-08T20:03:47;38.05;;;17.13;;
50363;SDS011;36272;59.400;17.982;2023-01-08T20:08:50;33.63;;;15.73;;
50363;SDS011;36272;59.400;17.982;2023-01-08T20:13:54;38.65;;;17.45;;
50363;SDS011;36272;59.400;17.982;2023-01-08T20:19:01;32.78;;;15.35;;
50363;SDS011;36272;59.400;17.982;2023-01-08T20:24:05;36.28;;;17.02;;
50363;SDS011;36272;59.400;17.982;2023-01-08T20:29:11;38.05;;;17.35;;
50363;SDS011;36272;59.400;17.982;2023-01-08T20:34:14;42.22;;;16.92;;
50363;SDS011;36272;59.400;17.982;2023-01-08T20:39:17;38.50;;;16.55;;
50363;SDS011;36272;59.400;17.982;2023-01-08T20:44:19;34.97;;;15.98;;
50363;SDS011;36272;59.400;17.982;2023-01-08T20:49:21;32.58;;;15.65;;
50363;SDS011;36272;59.400;17.982;2023-01-08T20:54:25;31.20;;;14.90;;
50363;SDS011;36272;59.400;17.982;2023-01-08T20:59:28;35.63;;;15.68;;
50363;SDS011;36272;59.400;17.982;2023-01-08T21:04:29;33.72;;;15.32;;
50363;SDS011;36272;59.400;17.982;2023-01-08T21:09:31;36.55;;;15.65;;
50363;SDS011;36272;59.400;17.982;2023-01-08T21:14:39;39.83;;;16.42;;
50363;SDS011;36272;59.400;17.982;2023-01-08T21:19:43;36.42;;;16.33;;
50363;SDS011;36272;59.400;17.982;2023-01-08T21:24:45;38.08;;;17.48;;
50363;SDS011;36272;59.400;17.982;2023-01-08T21:29:47;34.22;;;16.08;;
50363;SDS011;36272;59.400;17.982;2023-01-08T21:34:49;34.40;;;16.92;;
50363;SDS011;36272;59.400;17.982;2023-01-08T21:39:52;33.22;;;17.10;;
50363;SDS011;36272;59.400;17.982;2023-01-08T21:44:54;27.48;;;15.98;;
50363;SDS011;36272;59.400;17.982;2023-01-08T21:50:14;29.00;;;15.52;;
50363;SDS011;36272;59.400;17.982;2023-01-08T21:55:16;27.40;;;14.75;;
50363;SDS011;36272;59.400;17.982;2023-01-08T22:00:18;34.33;;;15.75;;
50363;SDS011;36272;59.400;17.982;2023-01-08T22:05:20;33.80;;;16.63;;
50363;SDS011;36272;59.400;17.982;2023-01-08T22:10:21;34.60;;;16.98;;
50363;SDS011;36272;59.400;17.982;2023-01-08T22:15:28;36.10;;;17.65;;
50363;SDS011;36272;59.400;17.982;2023-01-08T22:20:30;34.70;;;17.67;;
50363;SDS011;36272;59.400;17.982;2023-01-08T22:25:31;34.58;;;17.23;;
50363;SDS011;36272;59.400;17.982;2023-01-08T22:30:33;41.45;;;18.48;;
50363;SDS011;36272;59.400;17.982;2023-01-08T22:35:36;32.50;;;16.63;;
50363;SDS011;36272;59.400;17.982;2023-01-08T22:40:38;36.90;;;17.02;;
50363;SDS011;36272;59.400;17.982;2023-01-08T22:45:39;36.58;;;17.00;;
50363;SDS011;36272;59.400;17.982;2023-01-08T22:50:42;33.10;;;15.50;;
50363;SDS011;36272;59.400;17.982;2023-01-08T22:55:45;34.08;;;16.50;;
50363;SDS011;36272;59.400;17.982;2023-01-08T23:00:48;32.83;;;15.35;;
50363;SDS011;36272;59.400;17.982;2023-01-08T23:05:49;34.10;;;15.65;;
50363;SDS011;36272;59.400;17.982;2023-01-08T23:11:01;35.97;;;14.88;;
50363;SDS011;36272;59.400;17.982;2023-01-08T23:16:04;32.47;;;14.85;;
50363;SDS011;36272;59.400;17.982;2023-01-08T23:21:08;32.55;;;14.07;;
50363;SDS011;36272;59.400;17.982;2023-01-08T23:26:13;27.90;;;13.10;;
50363;SDS011;36272;59.400;17.982;2023-01-08T23:31:21;30.25;;;13.20;;
50363;SDS011;36272;59.400;17.982;2023-01-08T23:36:24;30.77;;;12.77;;
50363;SDS011;36272;59.400;17.982;2023-01-08T23:41:26;30.80;;;12.43;;
50363;SDS011;36272;59.400;17.982;2023-01-08T23:46:33;38.50;;;13.23;;
50363;SDS011;36272;59.400;17.982;2023-01-08T23:51:35;28.83;;;12.88;;
50363;SDS011;36272;59.400;17.982;2023-01-08T23:56:37;28.02;;;12.93;;
